Time;durP1;ratioP1;P1;durP2;ratioP2;P2;SDS_P1;SDS_P2;PMS_P1;PMS_P2;Temp;Humidity;BMP_temperature;BMP_pressure;BME280_temperature;BME280_humidity;BME280_pressure;Samples;Min_cycle;Max_cycle;Signal;HPM_P1;HPM_P2
2022/01/22 00:01:47;;;;;;;10.93;7.88;;;4.50;99.90;;;;;;5114129;28;20215;-44
2022/01/22 00:04:13;;;;;;;17.15;8.68;;;4.50;99.90;;;;;;5113888;28;20252;-46
2022/01/22 00:06:38;;;;;;;13.82;8.43;;;4.50;99.90;;;;;;5113834;28;20176;-45
2022/01/22 00:09:04;;;;;;;18.38;9.13;;;4.50;99.90;;;;;;5113754;28;20168;-45
2022/01/22 00:11:36;;;;;;;12.77;7.25;;;4.50;99.90;;;;;;5113484;28;20232;-44
2022/01/22 00:16:47;;;;;;;18.63;9.30;;;4.60;99.90;;;;;;5113893;28;20172;-44
2022/01/22 00:19:13;;;;;;;18.13;8.02;;;4.50;99.90;;;;;;5113372;28;20732;-44
2022/01/22 00:21:38;;;;;;;14.75;8.63;;;4.50;99.90;;;;;;5113582;28;20172;-45
2022/01/22 00:24:06;;;;;;;15.32;8.85;;;4.50;99.90;;;;;;5113523;28;20239;-44
2022/01/22 00:26:32;;;;;;;13.85;7.55;;;4.50;99.90;;;;;;5113449;28;20174;-45
2022/01/22 00:28:57;;;;;;;17.55;9.63;;;4.50;99.90;;;;;;5113636;28;20160;-45
2022/01/22 00:31:23;;;;;;;18.33;9.70;;;4.60;99.90;;;;;;5113320;28;20172;-44
2022/01/22 00:33:48;;;;;;;20.30;9.50;;;4.60;99.90;;;;;;5113200;28;20218;-43
2022/01/22 00:36:14;;;;;;;24.95;10.48;;;4.60;99.90;;;;;;5113282;28;20165;-44
2022/01/22 00:38:40;;;;;;;21.75;9.00;;;4.60;99.90;;;;;;5113342;28;20275;-45
2022/01/22 00:41:05;;;;;;;13.80;7.90;;;4.60;99.90;;;;;;5113316;28;20173;-46
2022/01/22 00:43:31;;;;;;;21.65;8.70;;;4.60;99.90;;;;;;5113377;28;20245;-44
2022/01/22 00:45:56;;;;;;;20.33;10.20;;;4.60;99.90;;;;;;5113659;28;20175;-45
2022/01/22 00:48:22;;;;;;;21.52;9.60;;;4.60;99.90;;;;;;5113220;28;20172;-44
2022/01/22 00:50:51;;;;;;;17.92;10.30;;;4.50;99.90;;;;;;5113174;28;20701;-47
2022/01/22 00:53:17;;;;;;;17.92;10.00;;;4.60;99.90;;;;;;5113089;28;20153;-48
2022/01/22 00:55:42;;;;;;;19.98;9.45;;;4.50;99.90;;;;;;5113196;28;20274;-45
2022/01/22 00:58:08;;;;;;;16.73;11.52;;;4.50;99.90;;;;;;5113001;28;20177;-45
2022/01/22 01:00:34;;;;;;;22.42;10.82;;;4.50;99.90;;;;;;5112944;28;20203;-45
2022/01/22 01:03:00;;;;;;;17.73;10.38;;;4.50;99.90;;;;;;5113006;28;20165;-46
2022/01/22 01:05:25;;;;;;;23.88;12.48;;;4.50;99.90;;;;;;5113287;28;20179;-47
2022/01/22 01:07:51;;;;;;;28.30;13.73;;;4.50;99.90;;;;;;5112889;28;20244;-46
2022/01/22 01:10:19;;;;;;;21.35;12.48;;;4.50;99.90;;;;;;5112916;28;20553;-49
2022/01/22 01:12:45;;;;;;;28.30;13.98;;;4.40;99.90;;;;;;5112692;28;20270;-45
2022/01/22 01:34:11;;;;;;;22.65;12.93;;;4.40;99.90;;;;;;5112800;28;20175;-46
2022/01/22 01:36:38;;;;;;;24.13;14.05;;;4.30;99.90;;;;;;5112736;28;20229;-47
2022/01/22 01:39:07;;;;;;;18.70;12.05;;;4.40;99.90;;;;;;5112451;28;20196;-45
2022/01/22 01:43:58;;;;;;;22.70;13.68;;;4.30;99.90;;;;;;5113083;28;20160;-49
2022/01/22 01:46:26;;;;;;;25.05;14.35;;;4.30;99.90;;;;;;5112444;28;20168;-51
2022/01/22 01:48:51;;;;;;;22.60;13.90;;;4.30;99.90;;;;;;5112630;28;20192;-51
2022/01/22 01:51:17;;;;;;;27.60;15.85;;;4.30;99.90;;;;;;5112579;28;20537;-52
2022/01/22 01:53:55;;;;;;;26.95;14.43;;;4.30;99.90;;;;;;5112278;28;20175;-48
2022/01/22 01:59:06;;;;;;;22.67;15.48;;;4.30;99.90;;;;;;5112386;28;20258;-54
2022/01/22 02:01:33;;;;;;;32.85;17.08;;;4.30;99.90;;;;;;5112304;28;20628;-55
2022/01/22 02:03:58;;;;;;;28.15;16.48;;;4.30;99.90;;;;;;5112553;28;20177;-50
2022/01/22 02:06:24;;;;;;;30.33;15.30;;;4.30;99.90;;;;;;5112166;28;20203;-49
2022/01/22 02:08:52;;;;;;;26.08;15.85;;;4.30;99.90;;;;;;5112425;28;20198;-48
2022/01/22 02:11:20;;;;;;;31.85;14.10;;;4.30;99.90;;;;;;5116062;28;20228;-49
2022/01/22 02:14:00;;;;;;;25.83;14.85;;;4.40;99.90;;;;;;5116431;28;20247;-50
2022/01/22 02:24:45;;;;;;;35.00;18.85;;;4.30;99.90;;;;;;5116344;28;20191;-51
2022/01/22 02:27:10;;;;;;;24.55;13.43;;;4.30;99.90;;;;;;5116073;28;20624;-46
2022/01/22 02:29:36;;;;;;;24.10;15.38;;;4.30;99.90;;;;;;5115968;28;20164;-45
2022/01/22 02:32:48;;;;;;;33.38;18.40;;;4.30;99.90;;;;;;5115932;28;20617;-44
2022/01/22 02:35:00;;;;;;;27.88;14.35;;;4.30;99.90;;;;;;5115178;28;20259;-46
2022/01/22 02:37:32;;;;;;;31.33;18.50;;;4.30;99.90;;;;;;5116146;28;20571;-50
2022/01/22 02:40:03;;;;;;;29.58;18.17;;;4.30;99.90;;;;;;5116201;28;20247;-51
2022/01/22 02:42:32;;;;;;;31.35;18.30;;;4.30;99.90;;;;;;5116133;28;20160;-47
2022/01/22 02:44:58;;;;;;;34.85;19.73;;;4.30;99.90;;;;;;5116228;28;20169;-52
2022/01/22 02:47:23;;;;;;;30.23;15.88;;;4.30;99.90;;;;;;5097262;28;20202;-54
2022/01/22 02:49:50;;;;;;;28.75;18.65;;;4.20;99.90;;;;;;5115483;28;20168;-48
2022/01/22 02:52:17;;;;;;;34.70;20.10;;;4.30;99.90;;;;;;5115496;28;20620;-50
2022/01/22 02:54:44;;;;;;;40.58;18.38;;;4.30;99.90;;;;;;5115784;28;20177;-48
2022/01/22 02:57:11;;;;;;;45.85;20.63;;;4.30;99.90;;;;;;5115379;28;20168;-55
2022/01/22 02:59:37;;;;;;;33.38;19.92;;;4.30;99.90;;;;;;5115533;28;20208;-47
2022/01/22 03:02:04;;;;;;;32.08;20.05;;;4.30;99.90;;;;;;5115531;28;20167;-52
2022/01/22 03:04:31;;;;;;;31.30;19.52;;;4.40;99.90;;;;;;5115862;28;20572;-50
2022/01/22 03:06:57;;;;;;;37.42;19.77;;;4.30;99.90;;;;;;5115588;28;20534;-49
2022/01/22 03:09:29;;;;;;;41.85;20.88;;;4.40;99.90;;;;;;5115147;28;20671;-50
2022/01/22 03:22:22;;;;;;;31.67;18.73;;;4.40;99.90;;;;;;5113741;28;20505;-50
2022/01/22 03:27:33;;;;;;;37.30;18.95;;;4.40;99.90;;;;;;5115030;28;20585;-51
2022/01/22 03:30:00;;;;;;;38.30;19.48;;;4.30;99.90;;;;;;5114975;28;20654;-51
2022/01/22 03:32:31;;;;;;;32.55;18.08;;;5.00;99.90;;;;;;5115190;28;20234;-52
2022/01/22 03:34:57;;;;;;;37.35;18.45;;;4.40;99.90;;;;;;5115231;28;20574;-50
2022/01/22 03:37:25;;;;;;;33.45;17.98;;;4.40;99.90;;;;;;5114578;28;20548;-45
2022/01/22 03:39:51;;;;;;;39.25;18.40;;;4.40;99.90;;;;;;5114477;28;20261;-45
2022/01/22 03:42:17;;;;;;;30.45;20.45;;;4.40;99.90;;;;;;5114858;28;20175;-56
2022/01/22 03:44:43;;;;;;;32.47;18.67;;;4.40;99.90;;;;;;5114783;28;20169;-48
2022/01/22 03:47:08;;;;;;;41.92;19.70;;;4.40;99.90;;;;;;5114426;28;20525;-49
2022/01/22 03:49:34;;;;;;;30.52;18.52;;;4.40;99.90;;;;;;5114503;28;20176;-46
2022/01/22 03:51:59;;;;;;;24.45;14.30;;;4.40;99.90;;;;;;5114966;28;20235;-46
2022/01/22 03:54:25;;;;;;;40.50;19.38;;;4.40;99.90;;;;;;5114805;28;20243;-55
2022/01/22 03:56:52;;;;;;;26.02;14.48;;;4.40;99.90;;;;;;5095940;28;20198;-47
2022/01/22 03:59:18;;;;;;;19.70;12.45;;;4.40;99.90;;;;;;5114125;28;20244;-50
2022/01/22 04:02:10;;;;;;;30.48;17.67;;;4.40;99.90;;;;;;5114255;28;20165;-45
2022/01/22 04:04:39;;;;;;;26.40;16.48;;;4.40;99.90;;;;;;5113962;28;20180;-49
2022/01/22 04:09:51;;;;;;;26.38;14.60;;;4.40;99.90;;;;;;5114012;28;20500;-45
2022/01/22 04:12:22;;;;;;;30.02;17.58;;;4.50;99.90;;;;;;5113789;28;20212;-47
2022/01/22 04:14:55;;;;;;;31.70;18.65;;;4.50;99.90;;;;;;5114206;28;20185;-45
2022/01/22 04:17:37;;;;;;;35.47;18.95;;;4.60;99.90;;;;;;5114144;28;20196;-47
2022/01/22 04:25:35;;;;;;;32.67;17.20;;;4.60;99.90;;;;;;5113705;28;20225;-47
2022/01/22 04:28:01;;;;;;;35.78;19.90;;;4.60;99.90;;;;;;5113623;28;20558;-50
2022/01/22 04:30:28;;;;;;;35.10;20.13;;;4.60;99.90;;;;;;5095616;28;20177;-45
2022/01/22 04:32:54;;;;;;;40.55;20.52;;;4.60;99.90;;;;;;5113465;28;20180;-44
2022/01/22 04:35:22;;;;;;;31.10;18.60;;;4.60;99.90;;;;;;5113300;28;20255;-45
2022/01/22 04:37:49;;;;;;;32.25;17.77;;;4.60;99.90;;;;;;5113410;28;20180;-47
2022/01/22 04:40:14;;;;;;;28.73;18.92;;;4.70;99.90;;;;;;5113128;28;20668;-46
2022/01/22 04:42:41;;;;;;;37.55;19.50;;;4.60;99.90;;;;;;5095089;28;20157;-45
2022/01/22 04:45:25;;;;;;;34.65;18.55;;;4.60;99.90;;;;;;5113532;28;20176;-48
2022/01/22 04:55:39;;;;;;;33.63;19.30;;;4.70;99.90;;;;;;5113497;28;20176;-45
2022/01/22 04:58:06;;;;;;;36.00;20.67;;;4.70;99.90;;;;;;5113134;28;20165;-52
2022/01/22 05:00:40;;;;;;;34.17;20.63;;;4.70;99.90;;;;;;5112971;28;20227;-54
2022/01/22 05:03:05;;;;;;;37.78;20.48;;;4.70;99.90;;;;;;5113012;28;20164;-51
2022/01/22 05:05:32;;;;;;;30.65;15.48;;;4.70;99.90;;;;;;5112983;28;20203;-51
2022/01/22 05:07:57;;;;;;;43.05;22.75;;;4.70;99.90;;;;;;5113179;28;20167;-53
2022/01/22 05:10:23;;;;;;;30.48;20.52;;;4.70;99.90;;;;;;5112839;28;20169;-53
2022/01/22 05:12:49;;;;;;;38.63;22.42;;;4.70;99.90;;;;;;5112606;28;20201;-46
2022/01/22 05:15:17;;;;;;;33.78;21.40;;;4.70;99.90;;;;;;5112816;28;20164;-45
2022/01/22 05:17:44;;;;;;;37.35;21.70;;;4.70;99.90;;;;;;5112650;28;20563;-46
2022/01/22 05:20:20;;;;;;;36.30;20.63;;;4.70;99.90;;;;;;5112957;28;20200;-46
2022/01/22 05:22:56;;;;;;;39.63;22.95;;;4.70;99.90;;;;;;5112612;28;20568;-45
2022/01/22 05:25:33;;;;;;;38.05;20.58;;;4.80;99.90;;;;;;5112621;28;20245;-49
2022/01/22 05:28:17;;;;;;;40.55;22.15;;;4.70;99.90;;;;;;5094722;28;20164;-46
2022/01/22 05:38:22;;;;;;;31.42;19.38;;;4.80;99.90;;;;;;5112858;28;20213;-45
2022/01/22 05:40:49;;;;;;;34.53;21.60;;;4.70;99.90;;;;;;5112392;28;20600;-45
2022/01/22 05:43:14;;;;;;;40.10;23.77;;;4.70;99.90;;;;;;5112455;28;20181;-45
2022/01/22 05:45:41;;;;;;;44.97;20.77;;;4.70;99.90;;;;;;5111704;28;20168;-46
2022/01/22 05:48:07;;;;;;;42.15;23.67;;;4.80;99.90;;;;;;5112476;28;20646;-45
2022/01/22 05:50:45;;;;;;;34.22;19.88;;;4.70;99.90;;;;;;5112374;28;20168;-45
2022/01/22 05:53:30;;;;;;;36.45;23.30;;;4.80;99.90;;;;;;5112322;28;20161;-47
2022/01/22 06:01:16;;;;;;;42.53;23.73;;;4.80;99.90;;;;;;5112537;28;20262;-45
2022/01/22 06:03:43;;;;;;;30.33;19.33;;;4.80;99.90;;;;;;5112211;28;20613;-45
2022/01/22 06:06:08;;;;;;;47.65;24.45;;;4.80;99.90;;;;;;5112398;28;20169;-46
2022/01/22 06:08:40;;;;;;;41.47;24.00;;;4.80;99.90;;;;;;5112421;28;20171;-46
2022/01/22 06:11:10;;;;;;;48.33;24.55;;;4.80;99.90;;;;;;5112214;28;20173;-46
2022/01/22 06:13:46;;;;;;;47.95;24.45;;;4.80;99.90;;;;;;5112457;28;20226;-45
2022/01/22 06:16:19;;;;;;;42.83;21.50;;;4.80;99.90;;;;;;5112371;28;20253;-46
2022/01/22 06:18:45;;;;;;;48.08;24.85;;;4.80;99.90;;;;;;5112024;28;20160;-45
2022/01/22 06:21:11;;;;;;;44.88;23.90;;;4.90;99.90;;;;;;5112140;28;20259;-45
2022/01/22 06:23:38;;;;;;;50.35;23.25;;;4.80;99.90;;;;;;5112074;28;20241;-45
2022/01/22 06:26:06;;;;;;;41.85;20.65;;;4.80;99.90;;;;;;5112017;28;20197;-45
2022/01/22 06:28:33;;;;;;;43.83;24.95;;;4.80;99.90;;;;;;5112069;28;20165;-45
2022/01/22 06:31:00;;;;;;;47.63;25.75;;;4.80;99.90;;;;;;5112424;28;20165;-45
2022/01/22 06:33:26;;;;;;;42.90;26.70;;;4.90;99.90;;;;;;5112351;28;20214;-47
2022/01/22 06:35:52;;;;;;;48.35;26.13;;;4.90;99.90;;;;;;5112280;28;20169;-45
2022/01/22 06:38:19;;;;;;;47.33;26.48;;;4.80;99.90;;;;;;5111732;28;20197;-45
2022/01/22 06:43:30;;;;;;;45.53;25.23;;;4.80;99.90;;;;;;5112542;28;20175;-45
2022/01/22 06:45:56;;;;;;;46.88;27.23;;;4.90;99.90;;;;;;5112137;28;20244;-46
2022/01/22 06:48:21;;;;;;;48.03;27.42;;;4.80;99.90;;;;;;5111845;28;20676;-45
2022/01/22 06:50:47;;;;;;;46.50;26.55;;;4.80;99.90;;;;;;5112081;28;20208;-45
2022/01/22 06:53:13;;;;;;;48.13;27.55;;;4.90;99.90;;;;;;5111997;28;20247;-46
2022/01/22 06:55:45;;;;;;;55.03;27.90;;;4.90;99.90;;;;;;5113069;28;20179;-45
2022/01/22 06:58:13;;;;;;;48.17;25.27;;;4.90;99.90;;;;;;5115494;28;20152;-45
2022/01/22 07:00:38;;;;;;;52.72;27.73;;;4.80;99.90;;;;;;5115332;28;20570;-46
2022/01/22 07:03:04;;;;;;;47.50;24.70;;;4.80;99.90;;;;;;5097439;28;20256;-46
2022/01/22 07:05:30;;;;;;;49.00;29.15;;;4.80;99.90;;;;;;5115294;27;20169;-45
2022/01/22 07:07:56;;;;;;;57.55;28.52;;;4.80;99.90;;;;;;5115826;28;20168;-45
2022/01/22 07:10:22;;;;;;;52.03;27.17;;;4.80;99.90;;;;;;5115248;28;20505;-53
2022/01/22 07:12:47;;;;;;;54.33;27.75;;;4.80;99.90;;;;;;5114955;28;20223;-54
2022/01/22 07:15:13;;;;;;;46.88;26.98;;;4.80;99.90;;;;;;5115001;28;20225;-54
2022/01/22 07:17:40;;;;;;;48.65;25.50;;;4.80;99.90;;;;;;5114943;28;20172;-45
2022/01/22 07:20:15;;;;;;;49.95;23.83;;;4.80;99.90;;;;;;5114977;28;20193;-44
2022/01/22 07:25:17;;;;;;;48.28;26.92;;;4.80;99.90;;;;;;5115255;28;20255;-46
2022/01/22 07:27:42;;;;;;;45.38;25.00;;;4.80;99.90;;;;;;5114966;28;20161;-45
2022/01/22 07:30:08;;;;;;;45.20;25.30;;;4.80;99.90;;;;;;5114813;28;20167;-45
2022/01/22 07:32:37;;;;;;;49.50;25.98;;;4.80;99.90;;;;;;5114845;28;20527;-46
2022/01/22 07:35:04;;;;;;;45.95;27.45;;;4.90;99.90;;;;;;5114957;28;20169;-45
2022/01/22 07:37:30;;;;;;;47.67;26.42;;;4.80;99.90;;;;;;5114574;28;20165;-44
2022/01/22 07:39:56;;;;;;;47.70;25.20;;;4.80;99.90;;;;;;5114757;28;20267;-45
2022/01/22 07:42:21;;;;;;;43.90;25.23;;;4.90;99.90;;;;;;5114530;28;20160;-46
2022/01/22 07:44:47;;;;;;;48.13;25.38;;;4.90;99.90;;;;;;5114395;28;20171;-45
2022/01/22 07:47:13;;;;;;;51.28;28.58;;;4.90;99.90;;;;;;5114395;28;20160;-45
2022/01/22 07:49:38;;;;;;;50.42;25.80;;;4.90;99.90;;;;;;5114518;28;20683;-46
2022/01/22 07:52:05;;;;;;;37.13;22.88;;;4.90;99.90;;;;;;5114464;28;20248;-46
2022/01/22 07:54:32;;;;;;;52.72;26.30;;;4.90;99.90;;;;;;5114394;28;20217;-45
2022/01/22 07:56:59;;;;;;;46.22;23.13;;;5.00;99.90;;;;;;5114723;28;20184;-47
2022/01/22 07:59:24;;;;;;;37.25;21.17;;;5.00;99.90;;;;;;5114200;28;20694;-46
2022/01/22 08:01:50;;;;;;;48.30;27.02;;;5.00;99.90;;;;;;5114299;28;20165;-45
2022/01/22 08:04:23;;;;;;;45.83;27.40;;;5.10;99.90;;;;;;5114195;28;20196;-45
2022/01/22 08:06:48;;;;;;;41.97;22.58;;;5.10;99.90;;;;;;5113995;28;20244;-45
2022/01/22 08:09:14;;;;;;;35.53;21.60;;;5.00;99.90;;;;;;5113691;28;20633;-45
2022/01/22 08:11:39;;;;;;;43.03;24.55;;;5.10;99.90;;;;;;5095669;28;20311;-46
2022/01/22 08:14:08;;;;;;;47.25;25.42;;;5.00;99.90;;;;;;5078959;28;20624;-49
2022/01/22 08:16:34;;;;;;;40.03;24.08;;;5.30;99.90;;;;;;5113987;28;20183;-46
2022/01/22 08:19:00;;;;;;;51.10;26.60;;;5.10;99.90;;;;;;5113904;28;20204;-45
2022/01/22 08:21:27;;;;;;;58.80;36.10;;;5.20;99.90;;;;;;5122772;27;20773;-45
2022/01/22 08:23:52;;;;;;;54.13;29.38;;;5.30;99.90;;;;;;5114874;27;20160;-46
2022/01/22 08:26:22;;;;;;;47.85;27.73;;;5.30;99.90;;;;;;5153679;27;20175;-45
2022/01/22 08:28:54;;;;;;;45.33;26.63;;;5.30;99.90;;;;;;5154076;27;20250;-41
2022/01/22 08:36:33;;;;;;;46.63;26.55;;;5.40;99.90;;;;;;5153628;27;20224;-45
2022/01/22 08:38:59;;;;;;;48.97;26.00;;;5.40;99.90;;;;;;5135411;27;20670;-42
2022/01/22 08:41:24;;;;;;;48.85;27.25;;;5.40;99.90;;;;;;5153666;27;20258;-42
2022/01/22 08:43:50;;;;;;;44.83;27.08;;;5.40;99.90;;;;;;5153630;27;20194;-42
2022/01/22 08:46:15;;;;;;;48.50;26.92;;;5.40;99.90;;;;;;5153505;27;20167;-44
2022/01/22 08:48:41;;;;;;;48.55;28.13;;;5.40;99.90;;;;;;5153277;27;20198;-45
2022/01/22 08:51:08;;;;;;;44.70;26.10;;;5.40;99.90;;;;;;5153372;27;20174;-42
2022/01/22 08:53:33;;;;;;;47.50;26.63;;;5.30;99.90;;;;;;5153605;27;20217;-41
2022/01/22 08:56:00;;;;;;;52.30;26.13;;;5.40;99.90;;;;;;5153905;27;20593;-43
2022/01/22 08:58:26;;;;;;;48.58;26.95;;;5.30;99.90;;;;;;5153728;27;20275;-43
2022/01/22 09:00:52;;;;;;;48.15;26.55;;;5.70;99.90;;;;;;5153172;27;20725;-46
2022/01/22 09:03:19;;;;;;;47.85;26.77;;;5.40;99.90;;;;;;5153139;27;20164;-43
2022/01/22 09:05:47;;;;;;;46.08;27.42;;;5.40;99.90;;;;;;5152993;27;20163;-45
2022/01/22 09:08:15;;;;;;;36.63;20.90;;;5.30;99.90;;;;;;5153378;27;20170;-45
2022/01/22 09:10:42;;;;;;;46.97;27.40;;;5.30;99.90;;;;;;5152940;27;20242;-45
2022/01/22 09:13:08;;;;;;;53.50;27.40;;;5.30;99.90;;;;;;5152851;27;20562;-46
2022/01/22 09:15:34;;;;;;;52.92;26.65;;;5.30;99.90;;;;;;5152968;27;20254;-45
2022/01/22 09:17:59;;;;;;;49.08;29.08;;;5.40;99.90;;;;;;5153338;27;20250;-46
2022/01/22 09:20:43;;;;;;;54.75;27.13;;;5.40;99.90;;;;;;5143423;27;20249;-45
2022/01/22 09:23:11;;;;;;;50.92;28.98;;;5.50;99.90;;;;;;5132081;27;20156;-45
2022/01/22 09:25:37;;;;;;;51.33;27.95;;;5.50;99.90;;;;;;5152364;27;20585;-45
2022/01/22 09:28:04;;;;;;;43.22;25.42;;;5.50;99.90;;;;;;5111511;28;20624;-45
2022/01/22 09:30:30;;;;;;;44.45;26.15;;;5.50;99.90;;;;;;5111721;28;20528;-45
2022/01/22 09:32:56;;;;;;;45.05;26.58;;;5.60;99.90;;;;;;5111955;28;20177;-44
2022/01/22 09:35:21;;;;;;;44.20;25.63;;;5.60;99.90;;;;;;5129444;27;20187;-45
2022/01/22 09:37:47;;;;;;;38.58;23.30;;;5.60;99.90;;;;;;5131838;27;20598;-45
2022/01/22 09:40:13;;;;;;;42.42;25.00;;;5.60;99.90;;;;;;5131861;27;20208;-45
2022/01/22 09:42:40;;;;;;;40.20;24.98;;;5.60;99.90;;;;;;5132053;28;20164;-45
2022/01/22 09:45:07;;;;;;;41.83;24.85;;;5.60;99.90;;;;;;5131734;27;20172;-48
2022/01/22 09:47:33;;;;;;;41.00;23.88;;;5.60;99.90;;;;;;5131703;27;20587;-45
2022/01/22 09:49:59;;;;;;;51.17;27.85;;;5.60;99.90;;;;;;5132381;27;20172;-45
2022/01/22 09:52:24;;;;;;;42.17;24.85;;;5.60;99.90;;;;;;5131614;27;20163;-45
2022/01/22 09:54:50;;;;;;;43.53;24.90;;;5.50;99.90;;;;;;5131716;27;20172;-45
2022/01/22 09:57:16;;;;;;;45.22;25.02;;;5.50;99.90;;;;;;5131440;28;20159;-45
2022/01/22 09:59:41;;;;;;;52.40;29.70;;;5.50;99.90;;;;;;5131600;27;20199;-45
2022/01/22 10:02:14;;;;;;;52.05;28.95;;;5.60;99.90;;;;;;5131624;27;20211;-47
2022/01/22 10:04:41;;;;;;;49.53;28.75;;;5.50;99.90;;;;;;5131561;27;20164;-45
2022/01/22 10:07:15;;;;;;;48.80;28.60;;;5.50;99.90;;;;;;5131939;27;20172;-45
2022/01/22 10:09:59;;;;;;;48.42;29.13;;;5.50;99.90;;;;;;5131466;27;20246;-45
2022/01/22 10:12:26;;;;;;;49.05;28.38;;;5.50;99.90;;;;;;5131521;27;20222;-45
2022/01/22 10:15:06;;;;;;;52.70;28.75;;;5.50;99.90;;;;;;5131509;27;20169;-46
2022/01/22 10:17:40;;;;;;;50.30;27.88;;;5.50;99.90;;;;;;5131430;27;20168;-45
2022/01/22 10:20:29;;;;;;;53.47;30.10;;;5.50;99.90;;;;;;5131512;27;20706;-45
2022/01/22 10:23:21;;;;;;;42.63;23.00;;;5.60;99.90;;;;;;5131717;27;20217;-45
2022/01/22 10:25:57;;;;;;;47.33;26.73;;;5.50;99.90;;;;;;5131414;27;20523;-45
2022/01/22 10:28:26;;;;;;;46.35;24.85;;;5.50;99.90;;;;;;5131371;28;20168;-45
2022/01/22 10:30:57;;;;;;;48.40;27.90;;;5.60;99.90;;;;;;5132707;27;20639;-45
2022/01/22 10:33:28;;;;;;;45.88;27.83;;;5.70;99.90;;;;;;5116791;27;20772;-46
2022/01/22 10:36:20;;;;;;;45.67;27.30;;;5.70;99.90;;;;;;5135353;27;20191;-45
2022/01/22 10:38:53;;;;;;;45.40;26.48;;;5.70;99.90;;;;;;5121472;27;20207;-48
2022/01/22 10:41:41;;;;;;;49.80;29.27;;;5.70;99.90;;;;;;5134977;27;20190;-47
2022/01/22 10:44:10;;;;;;;47.13;26.98;;;5.70;99.90;;;;;;5135359;27;20164;-45
2022/01/22 10:46:47;;;;;;;41.53;26.90;;;5.80;99.90;;;;;;5134921;27;20531;-45
2022/01/22 10:49:21;;;;;;;42.00;23.92;;;5.80;99.90;;;;;;5135186;27;20213;-45
2022/01/22 10:51:59;;;;;;;33.00;18.70;;;5.80;99.90;;;;;;5134909;27;20238;-46
2022/01/22 10:54:28;;;;;;;42.13;22.90;;;5.80;99.90;;;;;;5135230;27;20623;-46
2022/01/22 10:57:08;;;;;;;35.53;20.55;;;5.80;99.90;;;;;;5134765;27;20217;-45
2022/01/22 10:59:34;;;;;;;45.97;23.10;;;5.80;99.90;;;;;;5134598;27;20195;-45
2022/01/22 11:02:00;;;;;;;43.78;22.08;;;5.90;99.90;;;;;;5135152;27;20631;-45
2022/01/22 11:04:28;;;;;;;45.55;23.33;;;6.00;99.90;;;;;;5135334;27;20178;-45
2022/01/22 11:06:57;;;;;;;40.45;24.77;;;6.10;99.90;;;;;;5134750;27;20258;-45
2022/01/22 11:09:24;;;;;;;37.75;20.67;;;6.20;99.90;;;;;;5134656;27;20168;-46
2022/01/22 11:11:51;;;;;;;35.42;21.88;;;6.20;99.90;;;;;;5134558;27;20250;-45
2022/01/22 11:14:18;;;;;;;36.70;22.02;;;6.30;99.90;;;;;;5134739;27;20216;-48
2022/01/22 11:16:46;;;;;;;28.42;18.63;;;6.30;99.90;;;;;;5134559;27;20171;-45
2022/01/22 11:19:15;;;;;;;31.42;18.80;;;6.30;99.90;;;;;;5134301;27;20234;-45
2022/01/22 11:21:46;;;;;;;34.38;20.27;;;6.30;99.90;;;;;;5134330;27;20473;-45
2022/01/22 11:24:21;;;;;;;32.63;18.40;;;6.30;99.90;;;;;;5134389;27;20164;-46
2022/01/22 11:26:51;;;;;;;33.78;20.10;;;6.30;99.90;;;;;;5134297;27;20163;-45
2022/01/22 11:29:17;;;;;;;29.45;17.80;;;6.30;99.90;;;;;;5134360;27;20168;-45
2022/01/22 11:31:49;;;;;;;31.73;20.60;;;6.30;99.90;;;;;;5134172;27;20218;-46
2022/01/22 11:34:17;;;;;;;31.25;18.77;;;6.30;99.90;;;;;;5134146;27;20259;-47
2022/01/22 11:36:51;;;;;;;37.42;20.13;;;6.20;99.90;;;;;;5134373;27;20558;-48
2022/01/22 11:39:20;;;;;;;31.02;18.48;;;6.30;99.90;;;;;;5133934;27;20251;-49
2022/01/22 11:41:58;;;;;;;33.08;20.38;;;6.20;99.90;;;;;;5133220;27;20172;-48
2022/01/22 11:44:40;;;;;;;32.95;20.17;;;6.20;99.90;;;;;;5134045;27;20168;-48
2022/01/22 11:47:14;;;;;;;39.47;21.15;;;6.20;99.90;;;;;;5134148;27;20179;-48
2022/01/22 11:49:41;;;;;;;34.75;20.05;;;6.10;99.90;;;;;;5133879;27;20175;-49
2022/01/22 11:52:12;;;;;;;43.13;22.15;;;6.10;99.90;;;;;;5133824;27;20211;-48
2022/01/22 11:54:59;;;;;;;40.22;23.75;;;6.10;99.90;;;;;;5133754;27;20172;-50
2022/01/22 11:57:30;;;;;;;40.67;23.10;;;6.10;99.90;;;;;;5133891;27;20635;-49
2022/01/22 12:00:22;;;;;;;40.55;24.70;;;6.10;99.90;;;;;;5133878;27;20208;-45
2022/01/22 12:03:03;;;;;;;44.83;22.60;;;6.10;99.90;;;;;;5133561;27;20247;-45
2022/01/22 12:05:30;;;;;;;45.25;24.50;;;6.10;99.90;;;;;;5133716;27;20164;-44
2022/01/22 12:08:00;;;;;;;43.83;24.67;;;6.10;99.90;;;;;;5133776;27;20259;-46
2022/01/22 12:10:39;;;;;;;42.08;24.52;;;6.10;99.90;;;;;;5133953;27;20164;-44
2022/01/22 12:16:10;;;;;;;36.85;21.15;;;6.20;99.90;;;;;;5133883;27;20672;-45
2022/01/22 12:18:43;;;;;;;41.92;22.92;;;6.20;99.90;;;;;;5133200;27;20160;-44
2022/01/22 12:23:57;;;;;;;36.47;20.88;;;6.30;99.90;;;;;;5133453;27;20170;-44
2022/01/22 12:26:46;;;;;;;36.50;22.45;;;6.30;99.90;;;;;;5114636;27;20176;-47
2022/01/22 12:29:29;;;;;;;37.55;21.67;;;6.40;99.90;;;;;;5133094;27;20647;-45
2022/01/22 12:32:16;;;;;;;38.80;21.77;;;6.30;99.90;;;;;;5133572;27;20275;-44
2022/01/22 12:34:57;;;;;;;38.92;21.77;;;6.40;99.90;;;;;;5133241;27;20164;-45
2022/01/22 12:37:23;;;;;;;40.55;20.77;;;6.40;99.90;;;;;;5133077;27;20186;-44
2022/01/22 12:39:52;;;;;;;34.47;21.17;;;6.30;99.90;;;;;;5132709;27;20292;-45
2022/01/22 12:42:45;;;;;;;37.67;21.65;;;6.30;99.90;;;;;;5132888;27;20175;-45
2022/01/22 12:45:07;;;;;;;34.58;21.92;;;6.30;99.90;;;;;;5132041;27;20178;-45
2022/01/22 12:47:35;;;;;;;40.90;22.73;;;6.40;99.90;;;;;;5132602;27;20174;-44
2022/01/22 12:50:08;;;;;;;32.92;20.77;;;6.30;99.90;;;;;;5132908;27;20175;-46
2022/01/22 12:52:34;;;;;;;39.05;21.38;;;6.40;99.90;;;;;;5132769;27;20552;-45
2022/01/22 12:55:01;;;;;;;34.75;22.00;;;6.40;99.90;;;;;;5132398;27;20170;-44
2022/01/22 12:57:28;;;;;;;37.20;22.15;;;6.40;99.90;;;;;;5132726;27;20558;-45
2022/01/22 13:02:43;;;;;;;37.03;20.58;;;6.40;99.90;;;;;;5132625;27;20200;-44
2022/01/22 13:05:12;;;;;;;31.95;19.25;;;6.40;99.90;;;;;;5132414;27;20175;-44
2022/01/22 13:07:46;;;;;;;33.05;20.20;;;6.40;99.90;;;;;;5132531;27;20184;-44
2022/01/22 13:10:13;;;;;;;33.88;20.55;;;6.40;99.90;;;;;;5132127;27;20167;-46
2022/01/22 13:12:46;;;;;;;34.60;20.38;;;6.40;99.90;;;;;;5131803;27;20215;-47
2022/01/22 13:15:15;;;;;;;35.88;20.00;;;6.40;99.90;;;;;;5132089;27;20985;-46
2022/01/22 13:17:42;;;;;;;30.65;18.67;;;6.40;99.90;;;;;;5132185;27;20497;-45
2022/01/22 13:20:17;;;;;;;31.23;19.00;;;6.40;99.90;;;;;;5132308;27;20223;-45
2022/01/22 13:22:43;;;;;;;35.40;20.02;;;6.40;99.90;;;;;;5132047;27;20618;-45
2022/01/22 13:25:12;;;;;;;35.83;21.05;;;6.40;99.90;;;;;;5132142;27;20182;-44
2022/01/22 13:27:39;;;;;;;33.97;20.52;;;6.40;99.90;;;;;;5131748;27;20247;-45
2022/01/22 13:30:08;;;;;;;33.88;20.75;;;6.50;99.90;;;;;;5131990;27;20164;-44
2022/01/22 13:33:26;;;;;;;37.17;22.48;;;6.40;99.90;;;;;;5132075;27;20163;-44
2022/01/22 13:40:59;;;;;;;36.47;23.05;;;6.40;99.90;;;;;;5131759;27;20218;-45
2022/01/22 13:49:21;;;;;;;41.45;25.58;;;6.40;99.90;;;;;;5132090;27;20242;-46
2022/01/22 13:51:48;;;;;;;42.17;24.88;;;6.40;99.90;;;;;;5131863;27;20171;-49
2022/01/22 13:54:16;;;;;;;43.05;25.60;;;6.40;99.90;;;;;;5131770;27;20171;-47
2022/01/22 13:56:55;;;;;;;45.40;27.00;;;6.40;99.90;;;;;;5131698;27;20164;-45
2022/01/22 13:59:22;;;;;;;46.15;25.50;;;6.40;99.90;;;;;;5131401;27;20560;-45
2022/01/22 14:02:10;;;;;;;43.45;27.65;;;6.40;99.90;;;;;;5131752;27;20255;-46
2022/01/22 14:04:41;;;;;;;44.15;24.73;;;6.40;99.90;;;;;;5131439;27;20181;-47
2022/01/22 14:07:16;;;;;;;43.33;26.13;;;6.30;99.90;;;;;;5135010;27;20224;-47
2022/01/22 14:10:01;;;;;;;42.42;26.63;;;6.40;99.90;;;;;;5135696;27;20189;-44
2022/01/22 14:12:32;;;;;;;45.55;25.60;;;6.40;99.90;;;;;;5135951;27;20227;-46
2022/01/22 14:15:04;;;;;;;50.17;28.48;;;6.40;99.90;;;;;;5136277;27;20172;-45
2022/01/22 14:17:38;;;;;;;42.95;26.60;;;6.40;99.90;;;;;;5135537;27;20632;-44
2022/01/22 14:20:10;;;;;;;46.17;26.98;;;6.40;99.90;;;;;;5135587;27;20295;-45
2022/01/22 14:22:52;;;;;;;44.05;26.45;;;6.40;99.90;;;;;;5135505;27;20260;-45
2022/01/22 14:25:18;;;;;;;45.70;28.25;;;6.40;99.90;;;;;;5133322;27;20180;-44
2022/01/22 14:27:55;;;;;;;53.45;29.25;;;6.30;99.90;;;;;;5135072;27;20182;-46
2022/01/22 14:30:39;;;;;;;50.20;26.95;;;6.40;99.90;;;;;;5135149;27;20247;-45
2022/01/22 14:33:06;;;;;;;49.15;29.42;;;6.40;99.90;;;;;;5135365;27;20175;-44
2022/01/22 14:35:33;;;;;;;55.70;30.15;;;6.40;99.90;;;;;;5135578;27;20168;-44
2022/01/22 14:38:22;;;;;;;47.40;28.40;;;6.40;99.90;;;;;;5135663;27;20196;-44